sensor_id;sensor_type;location;lat;lon;timestamp;pressure;altitude;pressure_sealevel;temperature;humidity
70458;BME280;57919;56.194;95.716;2023-03-13T00:07:45;99843.78;;;-6.40;68.61
70458;BME280;57919;56.194;95.716;2023-03-13T00:17:47;99864.72;;;-6.28;68.39
70458;BME280;57919;56.194;95.716;2023-03-13T00:27:49;99877.72;;;-6.11;68.43
70458;BME280;57919;56.194;95.716;2023-03-13T00:37:50;99894.22;;;-5.94;67.04
70458;BME280;57919;56.194;95.716;2023-03-13T00:47:53;99914.28;;;-5.85;66.75
70458;BME280;57919;56.194;95.716;2023-03-13T00:57:55;99931.75;;;-5.76;67.40
70458;BME280;57919;56.194;95.716;2023-03-13T01:07:57;99936.09;;;-5.74;68.70
70458;BME280;57919;56.194;95.716;2023-03-13T01:17:58;99963.28;;;-5.69;69.57
70458;BME280;57919;56.194;95.716;2023-03-13T01:28:00;99978.75;;;-5.40;70.07
70458;BME280;57919;56.194;95.716;2023-03-13T01:38:03;99997.69;;;-5.06;67.24
70458;BME280;57919;56.194;95.716;2023-03-13T01:48:05;99994.97;;;-5.00;66.79
70458;BME280;57919;56.194;95.716;2023-03-13T01:58:24;100027.31;;;-4.87;66.24
70458;BME280;57919;56.194;95.716;2023-03-13T02:08:35;100039.81;;;-5.01;65.95
70458;BME280;57919;56.194;95.716;2023-03-13T02:18:38;100052.19;;;-4.39;65.34
70458;BME280;57919;56.194;95.716;2023-03-13T02:28:41;100062.63;;;-3.27;62.60
70458;BME280;57919;56.194;95.716;2023-03-13T02:38:56;100079.81;;;-2.59;60.01
70458;BME280;57919;56.194;95.716;2023-03-13T02:49:18;100099.16;;;-2.16;58.11
70458;BME280;57919;56.194;95.716;2023-03-13T02:59:20;100111.16;;;-2.38;59.44
70458;BME280;57919;56.194;95.716;2023-03-13T03:09:24;100107.06;;;-2.98;60.51
70458;BME280;57919;56.194;95.716;2023-03-13T03:19:30;100132.09;;;-2.28;58.93
70458;BME280;57919;56.194;95.716;2023-03-13T03:29:32;100131.78;;;-2.12;58.17
70458;BME280;57919;56.194;95.716;2023-03-13T03:39:34;100148.44;;;-2.47;56.79
70458;BME280;57919;56.194;95.716;2023-03-13T03:49:37;100164.66;;;-3.12;58.21
70458;BME280;57919;56.194;95.716;2023-03-13T03:59:39;100170.22;;;-3.27;58.67
70458;BME280;57919;56.194;95.716;2023-03-13T04:09:43;100191.50;;;-3.33;59.58
70458;BME280;57919;56.194;95.716;2023-03-13T04:19:53;100207.56;;;-3.45;60.94
70458;BME280;57919;56.194;95.716;2023-03-13T04:29:56;100209.31;;;-3.46;59.57
70458;BME280;57919;56.194;95.716;2023-03-13T04:40:20;100194.53;;;-3.59;62.26
70458;BME280;57919;56.194;95.716;2023-03-13T04:50:50;100211.09;;;-3.46;62.68
70458;BME280;57919;56.194;95.716;2023-03-13T05:01:04;100197.13;;;-3.02;59.88
70458;BME280;57919;56.194;95.716;2023-03-13T05:11:24;100203.88;;;-1.97;55.40
70458;BME280;57919;56.194;95.716;2023-03-13T05:21:39;100212.31;;;-1.78;52.82
70458;BME280;57919;56.194;95.716;2023-03-13T05:32:10;100219.13;;;-2.08;52.42
70458;BME280;57919;56.194;95.716;2023-03-13T05:42:30;100219.31;;;-2.15;51.55
70458;BME280;57919;56.194;95.716;2023-03-13T05:52:50;100205.69;;;-1.99;52.34
70458;BME280;57919;56.194;95.716;2023-03-13T06:03:04;100196.84;;;-1.59;51.52
70458;BME280;57919;56.194;95.716;2023-03-13T06:13:11;100219.66;;;-1.15;49.56
70458;BME280;57919;56.194;95.716;2023-03-13T06:23:13;100213.44;;;-1.14;49.83
70458;BME280;57919;56.194;95.716;2023-03-13T06:33:15;100211.63;;;-1.12;49.97
70458;BME280;57919;56.194;95.716;2023-03-13T06:43:17;100198.91;;;-1.35;49.72
70458;BME280;57919;56.194;95.716;2023-03-13T06:53:19;100214.69;;;-0.59;47.98
70458;BME280;57919;56.194;95.716;2023-03-13T07:03:21;100232.38;;;-0.92;46.50
70458;BME280;57919;56.194;95.716;2023-03-13T07:13:25;100251.50;;;-1.13;46.36
70458;BME280;57919;56.194;95.716;2023-03-13T07:23:28;100255.38;;;-1.28;47.76
70458;BME280;57919;56.194;95.716;2023-03-13T07:33:31;100236.41;;;-0.43;45.87
70458;BME280;57919;56.194;95.716;2023-03-13T07:43:33;100257.75;;;-0.46;43.55
70458;BME280;57919;56.194;95.716;2023-03-13T07:53:36;100249.41;;;-0.67;44.93
70458;BME280;57919;56.194;95.716;2023-03-13T08:03:38;100250.84;;;-0.53;44.13
70458;BME280;57919;56.194;95.716;2023-03-13T08:13:41;100266.34;;;-1.06;44.77
70458;BME280;57919;56.194;95.716;2023-03-13T08:23:43;100261.22;;;-1.14;45.39
70458;BME280;57919;56.194;95.716;2023-03-13T08:33:47;100269.66;;;-0.28;46.22
70458;BME280;57919;56.194;95.716;2023-03-13T08:43:51;100266.94;;;-0.59;44.67
70458;BME280;57919;56.194;95.716;2023-03-13T08:53:54;100279.44;;;-0.63;45.55
70458;BME280;57919;56.194;95.716;2023-03-13T09:03:56;100297.81;;;-0.89;44.27
70458;BME280;57919;56.194;95.716;2023-03-13T09:13:59;100294.97;;;-1.19;46.08
70458;BME280;57919;56.194;95.716;2023-03-13T09:24:01;100297.50;;;-1.13;45.28
70458;BME280;57919;56.194;95.716;2023-03-13T09:34:03;100296.72;;;-1.18;45.37
70458;BME280;57919;56.194;95.716;2023-03-13T09:44:18;100299.84;;;-1.38;44.44
70458;BME280;57919;56.194;95.716;2023-03-13T09:54:34;100304.38;;;-1.43;44.17
70458;BME280;57919;56.194;95.716;2023-03-13T10:04:44;100307.31;;;-1.56;45.74
70458;BME280;57919;56.194;95.716;2023-03-13T10:35:11;100308.94;;;-1.49;45.79
70458;BME280;57919;56.194;95.716;2023-03-13T10:45:21;100331.31;;;-1.63;46.05
70458;BME280;57919;56.194;95.716;2023-03-13T10:55:25;100331.66;;;-1.78;47.63
70458;BME280;57919;56.194;95.716;2023-03-13T11:05:40;100323.88;;;-1.87;47.13
70458;BME280;57919;56.194;95.716;2023-03-13T11:15:51;100339.34;;;-2.10;47.03
70458;BME280;57919;56.194;95.716;2023-03-13T11:56:42;100374.44;;;-3.01;51.77
70458;BME280;57919;56.194;95.716;2023-03-13T12:06:51;100383.53;;;-3.20;52.37
70458;BME280;57919;56.194;95.716;2023-03-13T12:17:15;100388.31;;;-3.48;53.60
70458;BME280;57919;56.194;95.716;2023-03-13T12:27:32;100400.09;;;-3.06;52.87
70458;BME280;57919;56.194;95.716;2023-03-13T12:48:16;100414.09;;;-3.67;54.07
70458;BME280;57919;56.194;95.716;2023-03-13T12:58:52;100420.19;;;-3.60;54.48
70458;BME280;57919;56.194;95.716;2023-03-13T13:09:23;100415.88;;;-3.69;54.68
70458;BME280;57919;56.194;95.716;2023-03-13T13:39:38;100423.06;;;-3.80;55.80
70458;BME280;57919;56.194;95.716;2023-03-13T13:50:01;100419.38;;;-3.65;55.45
70458;BME280;57919;56.194;95.716;2023-03-13T14:00:22;100426.34;;;-3.60;55.78
70458;BME280;57919;56.194;95.716;2023-03-13T14:10:37;100422.91;;;-3.66;57.04
70458;BME280;57919;56.194;95.716;2023-03-13T14:21:02;100428.97;;;-3.58;57.30
70458;BME280;57919;56.194;95.716;2023-03-13T14:31:05;100426.34;;;-3.60;58.54
70458;BME280;57919;56.194;95.716;2023-03-13T14:41:22;100439.63;;;-3.64;58.98
70458;BME280;57919;56.194;95.716;2023-03-13T14:51:25;100448.38;;;-3.58;59.24
70458;BME280;57919;56.194;95.716;2023-03-13T15:01:28;100450.97;;;-3.54;59.33
70458;BME280;57919;56.194;95.716;2023-03-13T15:11:31;100453.66;;;-3.59;60.08
70458;BME280;57919;56.194;95.716;2023-03-13T15:21:37;100462.50;;;-3.60;60.89
70458;BME280;57919;56.194;95.716;2023-03-13T15:31:39;100455.50;;;-3.66;61.59
70458;BME280;57919;56.194;95.716;2023-03-13T15:41:42;100464.34;;;-3.67;63.39
70458;BME280;57919;56.194;95.716;2023-03-13T15:51:43;100459.97;;;-3.71;63.50
70458;BME280;57919;56.194;95.716;2023-03-13T16:01:45;100466.19;;;-3.75;64.78
70458;BME280;57919;56.194;95.716;2023-03-13T16:11:49;100470.56;;;-3.74;65.22
70458;BME280;57919;56.194;95.716;2023-03-13T16:21:50;100465.38;;;-3.83;66.81
70458;BME280;57919;56.194;95.716;2023-03-13T16:31:52;100456.63;;;-3.88;67.72
70458;BME280;57919;56.194;95.716;2023-03-13T16:41:54;100454.94;;;-3.95;68.91
70458;BME280;57919;56.194;95.716;2023-03-13T16:51:56;100454.09;;;-4.00;69.32
70458;BME280;57919;56.194;95.716;2023-03-13T17:01:57;100453.25;;;-4.02;70.73
70458;BME280;57919;56.194;95.716;2023-03-13T17:12:00;100458.56;;;-4.08;71.73
70458;BME280;57919;56.194;95.716;2023-03-13T17:22:02;100455.00;;;-4.04;72.31
70458;BME280;57919;56.194;95.716;2023-03-13T17:32:04;100458.47;;;-3.98;72.28
70458;BME280;57919;56.194;95.716;2023-03-13T17:42:07;100468.13;;;-3.92;72.94
70458;BME280;57919;56.194;95.716;2023-03-13T17:52:12;100463.69;;;-3.90;72.95
70458;BME280;57919;56.194;95.716;2023-03-13T18:02:15;100469.84;;;-3.88;73.35
70458;BME280;57919;56.194;95.716;2023-03-13T18:12:18;100474.25;;;-3.90;73.71
70458;BME280;57919;56.194;95.716;2023-03-13T18:22:20;100470.69;;;-3.86;73.02
70458;BME280;57919;56.194;95.716;2023-03-13T18:32:21;100462.81;;;-3.92;73.27
70458;BME280;57919;56.194;95.716;2023-03-13T18:42:23;100476.91;;;-3.92;72.71
70458;BME280;57919;56.194;95.716;2023-03-13T18:52:25;100481.22;;;-3.80;72.88
70458;BME280;57919;56.194;95.716;2023-03-13T19:02:27;100464.53;;;-3.86;73.07
70458;BME280;57919;56.194;95.716;2023-03-13T19:12:29;100461.81;;;-3.77;73.57
70458;BME280;57919;56.194;95.716;2023-03-13T19:22:31;100464.38;;;-3.71;72.84
70458;BME280;57919;56.194;95.716;2023-03-13T19:32:33;100453.75;;;-3.67;72.13
70458;BME280;57919;56.194;95.716;2023-03-13T19:42:35;100451.19;;;-3.74;72.99
70458;BME280;57919;56.194;95.716;2023-03-13T19:52:37;100440.69;;;-3.82;72.71
70458;BME280;57919;56.194;95.716;2023-03-13T20:02:39;100436.25;;;-3.78;73.16
70458;BME280;57919;56.194;95.716;2023-03-13T20:12:41;100430.94;;;-3.75;72.91
70458;BME280;57919;56.194;95.716;2023-03-13T20:22:43;100424.72;;;-3.70;73.50
70458;BME280;57919;56.194;95.716;2023-03-13T20:32:45;100397.44;;;-3.73;73.16
70458;BME280;57919;56.194;95.716;2023-03-13T20:42:47;100378.06;;;-3.75;73.23
70458;BME280;57919;56.194;95.716;2023-03-13T20:52:49;100386.88;;;-3.76;74.09
70458;BME280;57919;56.194;95.716;2023-03-13T21:02:53;100385.06;;;-3.71;74.14
70458;BME280;57919;56.194;95.716;2023-03-13T21:12:54;100371.84;;;-3.70;73.78
70458;BME280;57919;56.194;95.716;2023-03-13T21:22:56;100385.06;;;-3.71;74.04
70458;BME280;57919;56.194;95.716;2023-03-13T21:32:58;100380.63;;;-3.69;74.25
70458;BME280;57919;56.194;95.716;2023-03-13T21:43:00;100383.25;;;-3.68;74.83
70458;BME280;57919;56.194;95.716;2023-03-13T21:53:04;100387.72;;;-3.73;74.80
70458;BME280;57919;56.194;95.716;2023-03-13T22:03:06;100382.41;;;-3.70;74.36
70458;BME280;57919;56.194;95.716;2023-03-13T22:13:08;100389.47;;;-3.70;74.32
70458;BME280;57919;56.194;95.716;2023-03-13T22:23:11;100384.16;;;-3.69;74.49
70458;BME280;57919;56.194;95.716;2023-03-13T22:33:13;100371.03;;;-3.76;74.13
70458;BME280;57919;56.194;95.716;2023-03-13T22:43:15;100395.56;;;-3.64;74.21
70458;BME280;57919;56.194;95.716;2023-03-13T22:53:17;100391.91;;;-3.53;73.39
70458;BME280;57919;56.194;95.716;2023-03-13T23:03:19;100419.31;;;-3.61;73.91
70458;BME280;57919;56.194;95.716;2023-03-13T23:13:21;100407.81;;;-3.58;73.82
70458;BME280;57919;56.194;95.716;2023-03-13T23:23:23;100410.44;;;-3.55;73.62
70458;BME280;57919;56.194;95.716;2023-03-13T23:33:25;100416.66;;;-3.61;73.90
70458;BME280;57919;56.194;95.716;2023-03-13T23:43:27;100413.13;;;-3.60;74.30
70458;BME280;57919;56.194;95.716;2023-03-13T23:53:29;100432.53;;;-3.61;74.15
